sensor_id;sensor_type;location;lat;lon;timestamp;P1;durP1;ratioP1;P2;durP2;ratioP2
74064;SDS011;62421;51.412;5.432;2024-01-15T00:01:43;32.40;;;13.67;;
74064;SDS011;62421;51.412;5.432;2024-01-15T00:04:09;28.35;;;12.02;;
74064;SDS011;62421;51.412;5.432;2024-01-15T00:06:34;31.47;;;13.43;;
74064;SDS011;62421;51.412;5.432;2024-01-15T00:08:59;38.00;;;13.47;;
74064;SDS011;62421;51.412;5.432;2024-01-15T00:11:24;29.73;;;12.07;;
74064;SDS011;62421;51.412;5.432;2024-01-15T00:13:50;26.83;;;11.93;;
74064;SDS011;62421;51.412;5.432;2024-01-15T00:16:15;29.97;;;12.17;;
74064;SDS011;62421;51.412;5.432;2024-01-15T00:18:40;25.67;;;11.67;;
74064;SDS011;62421;51.412;5.432;2024-01-15T00:21:05;28.83;;;12.13;;
74064;SDS011;62421;51.412;5.432;2024-01-15T00:23:30;26.40;;;10.10;;
74064;SDS011;62421;51.412;5.432;2024-01-15T00:25:56;22.73;;;8.97;;
74064;SDS011;62421;51.412;5.432;2024-01-15T00:28:21;20.43;;;8.73;;
74064;SDS011;62421;51.412;5.432;2024-01-15T00:30:46;19.00;;;7.93;;
74064;SDS011;62421;51.412;5.432;2024-01-15T00:33:11;20.27;;;7.90;;
74064;SDS011;62421;51.412;5.432;2024-01-15T00:35:37;16.60;;;5.90;;
74064;SDS011;62421;51.412;5.432;2024-01-15T00:38:02;15.23;;;5.70;;
74064;SDS011;62421;51.412;5.432;2024-01-15T00:40:27;11.73;;;5.27;;
74064;SDS011;62421;51.412;5.432;2024-01-15T00:42:53;10.53;;;4.73;;
74064;SDS011;62421;51.412;5.432;2024-01-15T00:45:18;15.83;;;5.00;;
74064;SDS011;62421;51.412;5.432;2024-01-15T00:47:43;15.27;;;4.83;;
74064;SDS011;62421;51.412;5.432;2024-01-15T00:50:09;8.07;;;3.40;;
74064;SDS011;62421;51.412;5.432;2024-01-15T00:52:34;9.50;;;2.87;;
74064;SDS011;62421;51.412;5.432;2024-01-15T00:55:00;3.40;;;2.10;;
74064;SDS011;62421;51.412;5.432;2024-01-15T00:57:25;7.00;;;2.87;;
74064;SDS011;62421;51.412;5.432;2024-01-15T00:59:50;4.90;;;2.17;;
74064;SDS011;62421;51.412;5.432;2024-01-15T01:02:15;6.10;;;2.37;;
74064;SDS011;62421;51.412;5.432;2024-01-15T01:04:41;6.40;;;2.23;;
74064;SDS011;62421;51.412;5.432;2024-01-15T01:07:06;3.90;;;1.80;;
74064;SDS011;62421;51.412;5.432;2024-01-15T01:09:31;5.13;;;2.27;;
74064;SDS011;62421;51.412;5.432;2024-01-15T01:11:56;6.50;;;2.23;;
74064;SDS011;62421;51.412;5.432;2024-01-15T01:14:22;5.93;;;1.53;;
74064;SDS011;62421;51.412;5.432;2024-01-15T01:16:47;6.53;;;2.53;;
74064;SDS011;62421;51.412;5.432;2024-01-15T01:19:12;8.10;;;2.73;;
74064;SDS011;62421;51.412;5.432;2024-01-15T01:21:37;8.20;;;3.17;;
74064;SDS011;62421;51.412;5.432;2024-01-15T01:24:02;9.00;;;3.80;;
74064;SDS011;62421;51.412;5.432;2024-01-15T01:26:28;8.13;;;2.73;;
74064;SDS011;62421;51.412;5.432;2024-01-15T01:28:53;10.97;;;3.97;;
74064;SDS011;62421;51.412;5.432;2024-01-15T01:31:18;9.40;;;4.37;;
74064;SDS011;62421;51.412;5.432;2024-01-15T01:33:43;9.67;;;5.00;;
74064;SDS011;62421;51.412;5.432;2024-01-15T01:36:09;14.77;;;5.10;;
74064;SDS011;62421;51.412;5.432;2024-01-15T01:38:34;11.30;;;4.40;;
74064;SDS011;62421;51.412;5.432;2024-01-15T01:40:59;14.60;;;5.22;;
74064;SDS011;62421;51.412;5.432;2024-01-15T01:43:25;14.50;;;5.37;;
74064;SDS011;62421;51.412;5.432;2024-01-15T01:45:50;9.70;;;4.43;;
74064;SDS011;62421;51.412;5.432;2024-01-15T01:48:15;8.23;;;4.60;;
74064;SDS011;62421;51.412;5.432;2024-01-15T01:50:40;11.40;;;5.77;;
74064;SDS011;62421;51.412;5.432;2024-01-15T01:53:06;10.83;;;5.73;;
74064;SDS011;62421;51.412;5.432;2024-01-15T01:55:31;10.33;;;5.50;;
74064;SDS011;62421;51.412;5.432;2024-01-15T01:57:58;11.23;;;4.65;;
74064;SDS011;62421;51.412;5.432;2024-01-15T02:00:23;11.07;;;4.47;;
74064;SDS011;62421;51.412;5.432;2024-01-15T02:02:49;13.67;;;4.20;;
74064;SDS011;62421;51.412;5.432;2024-01-15T02:05:14;10.82;;;4.95;;
74064;SDS011;62421;51.412;5.432;2024-01-15T02:07:43;13.70;;;5.95;;
74064;SDS011;62421;51.412;5.432;2024-01-15T02:10:08;14.02;;;5.10;;
74064;SDS011;62421;51.412;5.432;2024-01-15T02:12:34;11.97;;;5.20;;
74064;SDS011;62421;51.412;5.432;2024-01-15T02:15:00;9.87;;;4.50;;
74064;SDS011;62421;51.412;5.432;2024-01-15T02:17:25;10.03;;;4.37;;
74064;SDS011;62421;51.412;5.432;2024-01-15T02:19:50;10.00;;;4.37;;
74064;SDS011;62421;51.412;5.432;2024-01-15T02:22:15;13.33;;;4.70;;
74064;SDS011;62421;51.412;5.432;2024-01-15T02:24:41;9.50;;;4.50;;
74064;SDS011;62421;51.412;5.432;2024-01-15T02:27:06;10.10;;;3.97;;
74064;SDS011;62421;51.412;5.432;2024-01-15T02:29:31;7.10;;;3.38;;
74064;SDS011;62421;51.412;5.432;2024-01-15T02:31:57;7.63;;;3.03;;
74064;SDS011;62421;51.412;5.432;2024-01-15T02:34:22;10.23;;;3.43;;
74064;SDS011;62421;51.412;5.432;2024-01-15T02:36:47;4.20;;;2.70;;
74064;SDS011;62421;51.412;5.432;2024-01-15T02:39:12;4.97;;;2.27;;
74064;SDS011;62421;51.412;5.432;2024-01-15T02:41:37;5.80;;;2.00;;
74064;SDS011;62421;51.412;5.432;2024-01-15T02:44:02;6.30;;;2.20;;
74064;SDS011;62421;51.412;5.432;2024-01-15T02:46:28;9.10;;;2.37;;
74064;SDS011;62421;51.412;5.432;2024-01-15T02:48:53;6.33;;;1.93;;
74064;SDS011;62421;51.412;5.432;2024-01-15T02:51:18;6.60;;;2.00;;
74064;SDS011;62421;51.412;5.432;2024-01-15T02:53:43;5.63;;;2.20;;
74064;SDS011;62421;51.412;5.432;2024-01-15T02:56:08;6.57;;;2.23;;
74064;SDS011;62421;51.412;5.432;2024-01-15T02:58:34;6.87;;;1.90;;
74064;SDS011;62421;51.412;5.432;2024-01-15T03:00:59;5.13;;;2.07;;
74064;SDS011;62421;51.412;5.432;2024-01-15T03:03:24;6.80;;;2.20;;
74064;SDS011;62421;51.412;5.432;2024-01-15T03:05:49;3.73;;;1.73;;
74064;SDS011;62421;51.412;5.432;2024-01-15T03:08:14;9.83;;;2.60;;
74064;SDS011;62421;51.412;5.432;2024-01-15T03:10:39;8.37;;;2.97;;
74064;SDS011;62421;51.412;5.432;2024-01-15T03:13:05;6.77;;;2.70;;
74064;SDS011;62421;51.412;5.432;2024-01-15T03:15:31;9.18;;;3.80;;
74064;SDS011;62421;51.412;5.432;2024-01-15T03:17:56;8.83;;;3.27;;
74064;SDS011;62421;51.412;5.432;2024-01-15T03:20:21;7.43;;;3.43;;
74064;SDS011;62421;51.412;5.432;2024-01-15T03:22:46;9.60;;;3.00;;
74064;SDS011;62421;51.412;5.432;2024-01-15T03:25:12;9.83;;;3.37;;
74064;SDS011;62421;51.412;5.432;2024-01-15T03:27:37;8.67;;;3.70;;
74064;SDS011;62421;51.412;5.432;2024-01-15T03:30:02;9.77;;;3.27;;
74064;SDS011;62421;51.412;5.432;2024-01-15T03:32:28;6.03;;;2.35;;
74064;SDS011;62421;51.412;5.432;2024-01-15T03:34:53;10.50;;;3.80;;
74064;SDS011;62421;51.412;5.432;2024-01-15T03:37:18;9.93;;;3.60;;
74064;SDS011;62421;51.412;5.432;2024-01-15T03:39:44;8.17;;;2.97;;
74064;SDS011;62421;51.412;5.432;2024-01-15T03:42:09;11.07;;;2.70;;
74064;SDS011;62421;51.412;5.432;2024-01-15T03:44:34;7.70;;;3.47;;
74064;SDS011;62421;51.412;5.432;2024-01-15T03:47:00;9.00;;;3.23;;
74064;SDS011;62421;51.412;5.432;2024-01-15T03:49:25;9.63;;;3.17;;
74064;SDS011;62421;51.412;5.432;2024-01-15T03:51:51;5.33;;;2.67;;
74064;SDS011;62421;51.412;5.432;2024-01-15T03:54:16;10.63;;;2.93;;
74064;SDS011;62421;51.412;5.432;2024-01-15T03:56:41;10.13;;;2.40;;
74064;SDS011;62421;51.412;5.432;2024-01-15T03:59:06;11.27;;;2.92;;
74064;SDS011;62421;51.412;5.432;2024-01-15T04:01:31;6.70;;;1.90;;
74064;SDS011;62421;51.412;5.432;2024-01-15T04:03:57;14.90;;;2.57;;
74064;SDS011;62421;51.412;5.432;2024-01-15T04:06:22;9.37;;;2.07;;
74064;SDS011;62421;51.412;5.432;2024-01-15T04:08:47;15.20;;;1.90;;
74064;SDS011;62421;51.412;5.432;2024-01-15T04:11:12;4.27;;;2.37;;
74064;SDS011;62421;51.412;5.432;2024-01-15T04:13:37;4.10;;;1.03;;
74064;SDS011;62421;51.412;5.432;2024-01-15T04:16:03;7.83;;;1.80;;
74064;SDS011;62421;51.412;5.432;2024-01-15T04:18:28;4.27;;;1.80;;
74064;SDS011;62421;51.412;5.432;2024-01-15T04:20:53;7.60;;;1.83;;
74064;SDS011;62421;51.412;5.432;2024-01-15T04:23:18;5.83;;;1.80;;
74064;SDS011;62421;51.412;5.432;2024-01-15T04:25:44;12.07;;;1.90;;
74064;SDS011;62421;51.412;5.432;2024-01-15T04:28:10;9.90;;;1.77;;
74064;SDS011;62421;51.412;5.432;2024-01-15T04:30:36;6.33;;;1.80;;
74064;SDS011;62421;51.412;5.432;2024-01-15T04:33:01;3.53;;;1.40;;
74064;SDS011;62421;51.412;5.432;2024-01-15T04:35:26;10.97;;;1.90;;
74064;SDS011;62421;51.412;5.432;2024-01-15T04:37:51;3.17;;;1.07;;
74064;SDS011;62421;51.412;5.432;2024-01-15T04:40:17;9.20;;;2.17;;
74064;SDS011;62421;51.412;5.432;2024-01-15T04:42:42;6.23;;;2.00;;
74064;SDS011;62421;51.412;5.432;2024-01-15T04:45:07;7.93;;;1.67;;
74064;SDS011;62421;51.412;5.432;2024-01-15T04:47:32;6.40;;;1.63;;
74064;SDS011;62421;51.412;5.432;2024-01-15T04:49:58;7.83;;;1.80;;
74064;SDS011;62421;51.412;5.432;2024-01-15T04:52:23;2.00;;;1.13;;
74064;SDS011;62421;51.412;5.432;2024-01-15T04:54:48;6.20;;;1.80;;
74064;SDS011;62421;51.412;5.432;2024-01-15T04:57:13;6.30;;;2.30;;
74064;SDS011;62421;51.412;5.432;2024-01-15T04:59:39;8.87;;;2.00;;
74064;SDS011;62421;51.412;5.432;2024-01-15T05:02:05;4.10;;;2.00;;
74064;SDS011;62421;51.412;5.432;2024-01-15T05:04:30;4.13;;;1.60;;
74064;SDS011;62421;51.412;5.432;2024-01-15T05:06:55;3.77;;;1.63;;
74064;SDS011;62421;51.412;5.432;2024-01-15T05:09:20;4.23;;;1.60;;
74064;SDS011;62421;51.412;5.432;2024-01-15T05:11:45;7.20;;;1.80;;
74064;SDS011;62421;51.412;5.432;2024-01-15T05:14:11;8.83;;;1.90;;
74064;SDS011;62421;51.412;5.432;2024-01-15T05:16:39;6.07;;;1.77;;
74064;SDS011;62421;51.412;5.432;2024-01-15T05:19:05;6.38;;;1.60;;
74064;SDS011;62421;51.412;5.432;2024-01-15T05:21:31;11.68;;;1.90;;
74064;SDS011;62421;51.412;5.432;2024-01-15T05:23:56;4.67;;;1.97;;
74064;SDS011;62421;51.412;5.432;2024-01-15T05:26:21;11.33;;;2.30;;
74064;SDS011;62421;51.412;5.432;2024-01-15T05:28:48;11.30;;;2.20;;
74064;SDS011;62421;51.412;5.432;2024-01-15T05:31:13;5.38;;;1.85;;
74064;SDS011;62421;51.412;5.432;2024-01-15T05:33:38;9.43;;;2.27;;
74064;SDS011;62421;51.412;5.432;2024-01-15T05:36:03;5.87;;;1.53;;
74064;SDS011;62421;51.412;5.432;2024-01-15T05:38:29;9.13;;;1.50;;
74064;SDS011;62421;51.412;5.432;2024-01-15T05:40:54;4.80;;;2.70;;
74064;SDS011;62421;51.412;5.432;2024-01-15T05:43:19;4.83;;;1.90;;
74064;SDS011;62421;51.412;5.432;2024-01-15T05:45:44;9.35;;;1.85;;
74064;SDS011;62421;51.412;5.432;2024-01-15T05:48:10;8.63;;;1.77;;
74064;SDS011;62421;51.412;5.432;2024-01-15T05:50:35;9.93;;;2.50;;
74064;SDS011;62421;51.412;5.432;2024-01-15T05:53:00;10.20;;;3.07;;
74064;SDS011;62421;51.412;5.432;2024-01-15T05:55:26;8.83;;;3.03;;
74064;SDS011;62421;51.412;5.432;2024-01-15T05:57:51;11.17;;;3.33;;
74064;SDS011;62421;51.412;5.432;2024-01-15T06:00:16;12.63;;;3.40;;
74064;SDS011;62421;51.412;5.432;2024-01-15T06:02:41;10.80;;;3.00;;
74064;SDS011;62421;51.412;5.432;2024-01-15T06:05:06;11.97;;;3.97;;
74064;SDS011;62421;51.412;5.432;2024-01-15T06:07:35;11.63;;;3.00;;
74064;SDS011;62421;51.412;5.432;2024-01-15T06:10:01;8.68;;;2.15;;
74064;SDS011;62421;51.412;5.432;2024-01-15T06:12:27;6.63;;;2.53;;
74064;SDS011;62421;51.412;5.432;2024-01-15T06:14:53;9.73;;;2.70;;
74064;SDS011;62421;51.412;5.432;2024-01-15T06:17:18;6.47;;;1.57;;
74064;SDS011;62421;51.412;5.432;2024-01-15T06:19:43;12.00;;;2.43;;
74064;SDS011;62421;51.412;5.432;2024-01-15T06:22:09;15.00;;;2.83;;
74064;SDS011;62421;51.412;5.432;2024-01-15T06:24:34;5.83;;;2.53;;
74064;SDS011;62421;51.412;5.432;2024-01-15T06:26:59;4.40;;;2.00;;
74064;SDS011;62421;51.412;5.432;2024-01-15T06:29:25;5.03;;;2.57;;
74064;SDS011;62421;51.412;5.432;2024-01-15T06:31:50;11.48;;;3.60;;
74064;SDS011;62421;51.412;5.432;2024-01-15T06:34:15;12.40;;;4.00;;
74064;SDS011;62421;51.412;5.432;2024-01-15T06:36:41;13.53;;;3.87;;
74064;SDS011;62421;51.412;5.432;2024-01-15T06:39:06;7.97;;;3.13;;
74064;SDS011;62421;51.412;5.432;2024-01-15T06:41:31;12.27;;;3.73;;
74064;SDS011;62421;51.412;5.432;2024-01-15T06:43:56;14.60;;;3.85;;
74064;SDS011;62421;51.412;5.432;2024-01-15T06:46:22;10.80;;;4.37;;
74064;SDS011;62421;51.412;5.432;2024-01-15T06:48:48;9.57;;;4.55;;
74064;SDS011;62421;51.412;5.432;2024-01-15T06:51:13;10.97;;;4.10;;
74064;SDS011;62421;51.412;5.432;2024-01-15T06:53:39;10.50;;;3.85;;
74064;SDS011;62421;51.412;5.432;2024-01-15T06:56:04;10.27;;;3.87;;
74064;SDS011;62421;51.412;5.432;2024-01-15T06:58:32;13.13;;;4.53;;
74064;SDS011;62421;51.412;5.432;2024-01-15T07:00:58;12.90;;;3.83;;
74064;SDS011;62421;51.412;5.432;2024-01-15T07:03:23;8.32;;;3.80;;
74064;SDS011;62421;51.412;5.432;2024-01-15T07:05:49;6.77;;;3.00;;
74064;SDS011;62421;51.412;5.432;2024-01-15T07:08:15;7.80;;;2.80;;
74064;SDS011;62421;51.412;5.432;2024-01-15T07:10:40;5.03;;;2.15;;
74064;SDS011;62421;51.412;5.432;2024-01-15T07:13:06;2.80;;;1.60;;
74064;SDS011;62421;51.412;5.432;2024-01-15T07:15:31;5.20;;;2.33;;
74064;SDS011;62421;51.412;5.432;2024-01-15T07:17:56;5.37;;;2.37;;
74064;SDS011;62421;51.412;5.432;2024-01-15T07:20:21;2.65;;;2.03;;
74064;SDS011;62421;51.412;5.432;2024-01-15T07:22:46;4.63;;;2.57;;
74064;SDS011;62421;51.412;5.432;2024-01-15T07:25:12;5.93;;;1.87;;
74064;SDS011;62421;51.412;5.432;2024-01-15T07:27:37;4.10;;;2.15;;
74064;SDS011;62421;51.412;5.432;2024-01-15T07:30:03;4.97;;;2.23;;
74064;SDS011;62421;51.412;5.432;2024-01-15T07:32:30;3.05;;;2.05;;
74064;SDS011;62421;51.412;5.432;2024-01-15T07:34:56;3.22;;;1.75;;
74064;SDS011;62421;51.412;5.432;2024-01-15T07:37:21;3.40;;;1.80;;
74064;SDS011;62421;51.412;5.432;2024-01-15T07:39:48;5.88;;;2.45;;
74064;SDS011;62421;51.412;5.432;2024-01-15T07:42:13;4.88;;;2.33;;
74064;SDS011;62421;51.412;5.432;2024-01-15T07:44:38;7.23;;;2.37;;
74064;SDS011;62421;51.412;5.432;2024-01-15T07:47:03;4.73;;;2.53;;
74064;SDS011;62421;51.412;5.432;2024-01-15T07:49:29;5.53;;;3.00;;
74064;SDS011;62421;51.412;5.432;2024-01-15T07:51:54;7.37;;;3.60;;
74064;SDS011;62421;51.412;5.432;2024-01-15T07:54:19;9.40;;;4.50;;
74064;SDS011;62421;51.412;5.432;2024-01-15T07:56:54;7.20;;;3.90;;
74064;SDS011;62421;51.412;5.432;2024-01-15T07:59:20;7.50;;;4.22;;
74064;SDS011;62421;51.412;5.432;2024-01-15T08:01:45;7.70;;;4.17;;
74064;SDS011;62421;51.412;5.432;2024-01-15T08:04:10;8.20;;;4.50;;
74064;SDS011;62421;51.412;5.432;2024-01-15T08:06:37;6.90;;;3.67;;
74064;SDS011;62421;51.412;5.432;2024-01-15T08:09:03;10.13;;;4.20;;
74064;SDS011;62421;51.412;5.432;2024-01-15T08:11:29;8.95;;;4.45;;
74064;SDS011;62421;51.412;5.432;2024-01-15T08:13:54;8.37;;;4.47;;
74064;SDS011;62421;51.412;5.432;2024-01-15T08:16:19;8.30;;;4.00;;
74064;SDS011;62421;51.412;5.432;2024-01-15T08:18:45;6.57;;;3.83;;
74064;SDS011;62421;51.412;5.432;2024-01-15T08:21:10;7.33;;;3.97;;
74064;SDS011;62421;51.412;5.432;2024-01-15T08:23:35;9.47;;;4.70;;
74064;SDS011;62421;51.412;5.432;2024-01-15T08:26:00;10.00;;;4.57;;
74064;SDS011;62421;51.412;5.432;2024-01-15T08:28:25;6.80;;;3.63;;
74064;SDS011;62421;51.412;5.432;2024-01-15T08:30:51;11.57;;;5.00;;
74064;SDS011;62421;51.412;5.432;2024-01-15T08:33:16;6.63;;;3.53;;
74064;SDS011;62421;51.412;5.432;2024-01-15T08:35:41;8.40;;;3.37;;
74064;SDS011;62421;51.412;5.432;2024-01-15T08:38:06;5.67;;;2.73;;
74064;SDS011;62421;51.412;5.432;2024-01-15T08:40:31;3.50;;;1.80;;
74064;SDS011;62421;51.412;5.432;2024-01-15T08:42:57;5.07;;;2.67;;
74064;SDS011;62421;51.412;5.432;2024-01-15T08:45:22;2.20;;;1.40;;
74064;SDS011;62421;51.412;5.432;2024-01-15T08:47:48;5.50;;;1.70;;
74064;SDS011;62421;51.412;5.432;2024-01-15T08:50:13;5.70;;;1.40;;
74064;SDS011;62421;51.412;5.432;2024-01-15T08:52:38;3.87;;;1.40;;
74064;SDS011;62421;51.412;5.432;2024-01-15T08:55:03;5.67;;;1.60;;
74064;SDS011;62421;51.412;5.432;2024-01-15T08:57:29;7.18;;;1.70;;
74064;SDS011;62421;51.412;5.432;2024-01-15T08:59:54;6.37;;;1.70;;
74064;SDS011;62421;51.412;5.432;2024-01-15T09:02:20;2.47;;;1.00;;
74064;SDS011;62421;51.412;5.432;2024-01-15T09:04:45;1.90;;;1.10;;
74064;SDS011;62421;51.412;5.432;2024-01-15T09:07:11;2.13;;;1.33;;
74064;SDS011;62421;51.412;5.432;2024-01-15T09:09:36;3.43;;;1.70;;
74064;SDS011;62421;51.412;5.432;2024-01-15T09:12:01;2.37;;;1.10;;
74064;SDS011;62421;51.412;5.432;2024-01-15T09:14:27;1.80;;;1.23;;
74064;SDS011;62421;51.412;5.432;2024-01-15T09:16:54;2.58;;;1.50;;
74064;SDS011;62421;51.412;5.432;2024-01-15T09:19:19;5.03;;;1.50;;
74064;SDS011;62421;51.412;5.432;2024-01-15T09:21:44;4.67;;;1.87;;
74064;SDS011;62421;51.412;5.432;2024-01-15T09:24:09;7.37;;;2.67;;
74064;SDS011;62421;51.412;5.432;2024-01-15T09:26:34;4.13;;;1.53;;
74064;SDS011;62421;51.412;5.432;2024-01-15T09:29:00;6.50;;;2.03;;
74064;SDS011;62421;51.412;5.432;2024-01-15T09:31:25;3.57;;;2.07;;
74064;SDS011;62421;51.412;5.432;2024-01-15T09:33:52;8.23;;;2.67;;
74064;SDS011;62421;51.412;5.432;2024-01-15T09:36:21;8.05;;;2.90;;
74064;SDS011;62421;51.412;5.432;2024-01-15T09:38:46;4.13;;;2.30;;
74064;SDS011;62421;51.412;5.432;2024-01-15T09:41:11;7.17;;;2.57;;
74064;SDS011;62421;51.412;5.432;2024-01-15T09:43:36;8.67;;;2.57;;
74064;SDS011;62421;51.412;5.432;2024-01-15T09:46:03;2.63;;;1.70;;
74064;SDS011;62421;51.412;5.432;2024-01-15T09:48:28;3.78;;;2.08;;
74064;SDS011;62421;51.412;5.432;2024-01-15T09:50:53;7.30;;;2.17;;
74064;SDS011;62421;51.412;5.432;2024-01-15T09:53:19;4.53;;;1.63;;
74064;SDS011;62421;51.412;5.432;2024-01-15T09:55:45;4.75;;;2.13;;
74064;SDS011;62421;51.412;5.432;2024-01-15T09:58:11;2.87;;;2.17;;
74064;SDS011;62421;51.412;5.432;2024-01-15T10:00:37;4.03;;;2.30;;
74064;SDS011;62421;51.412;5.432;2024-01-15T10:03:04;5.60;;;2.50;;
74064;SDS011;62421;51.412;5.432;2024-01-15T10:05:30;6.03;;;3.05;;
74064;SDS011;62421;51.412;5.432;2024-01-15T10:07:55;5.53;;;2.00;;
74064;SDS011;62421;51.412;5.432;2024-01-15T10:10:21;4.50;;;2.35;;
74064;SDS011;62421;51.412;5.432;2024-01-15T10:12:47;2.40;;;1.73;;
74064;SDS011;62421;51.412;5.432;2024-01-15T10:15:12;5.80;;;2.40;;
74064;SDS011;62421;51.412;5.432;2024-01-15T10:17:38;5.77;;;2.73;;
74064;SDS011;62421;51.412;5.432;2024-01-15T10:20:07;8.20;;;3.17;;
74064;SDS011;62421;51.412;5.432;2024-01-15T10:22:32;7.80;;;2.15;;
74064;SDS011;62421;51.412;5.432;2024-01-15T10:24:57;4.80;;;2.67;;
74064;SDS011;62421;51.412;5.432;2024-01-15T10:27:23;7.00;;;2.57;;
74064;SDS011;62421;51.412;5.432;2024-01-15T10:29:49;7.60;;;2.80;;
74064;SDS011;62421;51.412;5.432;2024-01-15T10:32:14;10.30;;;3.40;;
74064;SDS011;62421;51.412;5.432;2024-01-15T10:34:39;5.80;;;3.40;;
74064;SDS011;62421;51.412;5.432;2024-01-15T10:37:06;10.15;;;4.60;;
74064;SDS011;62421;51.412;5.432;2024-01-15T10:39:32;11.95;;;4.80;;
74064;SDS011;62421;51.412;5.432;2024-01-15T10:41:57;7.60;;;3.50;;
74064;SDS011;62421;51.412;5.432;2024-01-15T10:44:22;13.82;;;3.42;;
74064;SDS011;62421;51.412;5.432;2024-01-15T10:46:48;13.43;;;3.67;;
74064;SDS011;62421;51.412;5.432;2024-01-15T10:49:13;15.77;;;4.30;;
74064;SDS011;62421;51.412;5.432;2024-01-15T10:51:38;12.18;;;4.10;;
74064;SDS011;62421;51.412;5.432;2024-01-15T10:54:04;10.20;;;4.93;;
74064;SDS011;62421;51.412;5.432;2024-01-15T10:56:30;7.27;;;3.60;;
74064;SDS011;62421;51.412;5.432;2024-01-15T10:58:56;15.65;;;5.00;;
74064;SDS011;62421;51.412;5.432;2024-01-15T11:01:22;9.33;;;3.53;;
74064;SDS011;62421;51.412;5.432;2024-01-15T11:03:47;7.40;;;3.17;;
74064;SDS011;62421;51.412;5.432;2024-01-15T11:06:16;10.97;;;4.47;;
74064;SDS011;62421;51.412;5.432;2024-01-15T11:08:42;5.55;;;2.83;;
74064;SDS011;62421;51.412;5.432;2024-01-15T11:11:07;10.93;;;3.65;;
74064;SDS011;62421;51.412;5.432;2024-01-15T11:16:01;8.50;;;3.00;;
74064;SDS011;62421;51.412;5.432;2024-01-15T11:18:28;9.50;;;2.55;;
74064;SDS011;62421;51.412;5.432;2024-01-15T11:23:47;7.50;;;2.88;;
74064;SDS011;62421;51.412;5.432;2024-01-15T11:29:08;8.13;;;1.83;;
74064;SDS011;62421;51.412;5.432;2024-01-15T11:34:06;4.67;;;1.97;;
74064;SDS011;62421;51.412;5.432;2024-01-15T11:41:52;5.25;;;2.08;;
74064;SDS011;62421;51.412;5.432;2024-01-15T11:44:17;6.90;;;2.40;;
74064;SDS011;62421;51.412;5.432;2024-01-15T11:46:43;3.20;;;2.10;;
74064;SDS011;62421;51.412;5.432;2024-01-15T11:49:14;4.63;;;2.43;;
74064;SDS011;62421;51.412;5.432;2024-01-15T11:51:47;5.40;;;2.35;;
74064;SDS011;62421;51.412;5.432;2024-01-15T11:54:12;7.57;;;1.40;;
74064;SDS011;62421;51.412;5.432;2024-01-15T11:56:38;6.20;;;1.83;;
74064;SDS011;62421;51.412;5.432;2024-01-15T11:59:03;4.40;;;2.13;;
74064;SDS011;62421;51.412;5.432;2024-01-15T12:01:29;4.03;;;1.97;;
74064;SDS011;62421;51.412;5.432;2024-01-15T12:03:54;8.77;;;2.67;;
74064;SDS011;62421;51.412;5.432;2024-01-15T12:06:19;7.47;;;1.80;;
74064;SDS011;62421;51.412;5.432;2024-01-15T12:08:44;5.97;;;1.50;;
74064;SDS011;62421;51.412;5.432;2024-01-15T12:11:11;4.77;;;1.53;;
74064;SDS011;62421;51.412;5.432;2024-01-15T12:13:38;4.38;;;2.25;;
74064;SDS011;62421;51.412;5.432;2024-01-15T12:16:03;5.97;;;2.50;;
74064;SDS011;62421;51.412;5.432;2024-01-15T12:18:29;4.00;;;1.70;;
74064;SDS011;62421;51.412;5.432;2024-01-15T12:20:54;3.83;;;1.80;;
74064;SDS011;62421;51.412;5.432;2024-01-15T12:23:19;4.83;;;1.73;;
74064;SDS011;62421;51.412;5.432;2024-01-15T12:25:44;5.90;;;2.20;;
74064;SDS011;62421;51.412;5.432;2024-01-15T12:28:10;5.43;;;2.30;;
74064;SDS011;62421;51.412;5.432;2024-01-15T12:30:35;6.20;;;2.00;;
74064;SDS011;62421;51.412;5.432;2024-01-15T12:33:02;3.45;;;1.25;;
74064;SDS011;62421;51.412;5.432;2024-01-15T12:35:29;6.63;;;2.47;;
74064;SDS011;62421;51.412;5.432;2024-01-15T12:37:55;5.97;;;2.10;;
74064;SDS011;62421;51.412;5.432;2024-01-15T12:40:21;4.13;;;1.27;;
74064;SDS011;62421;51.412;5.432;2024-01-15T12:42:46;5.93;;;1.83;;
74064;SDS011;62421;51.412;5.432;2024-01-15T12:45:12;5.37;;;2.43;;
74064;SDS011;62421;51.412;5.432;2024-01-15T12:47:38;2.00;;;1.38;;
74064;SDS011;62421;51.412;5.432;2024-01-15T12:50:09;7.82;;;2.10;;
74064;SDS011;62421;51.412;5.432;2024-01-15T12:52:35;2.70;;;1.70;;
74064;SDS011;62421;51.412;5.432;2024-01-15T12:55:03;4.82;;;2.22;;
74064;SDS011;62421;51.412;5.432;2024-01-15T12:57:28;5.38;;;1.88;;
74064;SDS011;62421;51.412;5.432;2024-01-15T12:59:54;2.97;;;1.50;;
74064;SDS011;62421;51.412;5.432;2024-01-15T13:02:19;3.43;;;1.70;;
74064;SDS011;62421;51.412;5.432;2024-01-15T13:04:44;4.77;;;1.90;;
74064;SDS011;62421;51.412;5.432;2024-01-15T13:07:09;6.10;;;1.50;;
74064;SDS011;62421;51.412;5.432;2024-01-15T13:09:35;4.03;;;2.07;;
74064;SDS011;62421;51.412;5.432;2024-01-15T13:12:01;6.28;;;1.65;;
74064;SDS011;62421;51.412;5.432;2024-01-15T13:14:26;3.55;;;2.25;;
74064;SDS011;62421;51.412;5.432;2024-01-15T13:16:52;4.93;;;2.10;;
74064;SDS011;62421;51.412;5.432;2024-01-15T13:19:18;4.70;;;1.50;;
74064;SDS011;62421;51.412;5.432;2024-01-15T13:21:44;6.07;;;1.60;;
74064;SDS011;62421;51.412;5.432;2024-01-15T13:24:09;4.57;;;1.67;;
74064;SDS011;62421;51.412;5.432;2024-01-15T13:26:34;4.43;;;2.00;;
74064;SDS011;62421;51.412;5.432;2024-01-15T13:29:03;3.30;;;1.80;;
74064;SDS011;62421;51.412;5.432;2024-01-15T13:31:31;2.08;;;1.30;;
74064;SDS011;62421;51.412;5.432;2024-01-15T13:33:56;2.10;;;1.50;;
74064;SDS011;62421;51.412;5.432;2024-01-15T13:36:24;5.38;;;2.10;;
74064;SDS011;62421;51.412;5.432;2024-01-15T13:38:50;6.53;;;2.00;;
74064;SDS011;62421;51.412;5.432;2024-01-15T13:41:16;6.80;;;2.17;;
74064;SDS011;62421;51.412;5.432;2024-01-15T13:43:43;5.25;;;2.75;;
74064;SDS011;62421;51.412;5.432;2024-01-15T13:46:09;5.17;;;2.17;;
74064;SDS011;62421;51.412;5.432;2024-01-15T13:48:34;7.15;;;2.85;;
74064;SDS011;62421;51.412;5.432;2024-01-15T13:51:00;8.40;;;3.30;;
74064;SDS011;62421;51.412;5.432;2024-01-15T13:53:25;11.10;;;3.47;;
74064;SDS011;62421;51.412;5.432;2024-01-15T13:55:51;5.25;;;3.20;;
74064;SDS011;62421;51.412;5.432;2024-01-15T13:58:16;9.60;;;3.70;;
74064;SDS011;62421;51.412;5.432;2024-01-15T14:00:43;7.47;;;3.42;;
74064;SDS011;62421;51.412;5.432;2024-01-15T14:03:08;6.43;;;2.93;;
74064;SDS011;62421;51.412;5.432;2024-01-15T14:05:33;6.27;;;2.97;;
74064;SDS011;62421;51.412;5.432;2024-01-15T14:07:59;6.53;;;3.87;;
74064;SDS011;62421;51.412;5.432;2024-01-15T14:10:26;6.37;;;2.93;;
74064;SDS011;62421;51.412;5.432;2024-01-15T14:12:52;8.27;;;2.97;;
74064;SDS011;62421;51.412;5.432;2024-01-15T14:15:17;6.67;;;2.50;;
74064;SDS011;62421;51.412;5.432;2024-01-15T14:17:44;11.07;;;2.30;;
74064;SDS011;62421;51.412;5.432;2024-01-15T14:20:09;6.57;;;2.70;;
74064;SDS011;62421;51.412;5.432;2024-01-15T14:22:35;4.73;;;1.93;;
74064;SDS011;62421;51.412;5.432;2024-01-15T14:25:00;6.17;;;1.90;;
74064;SDS011;62421;51.412;5.432;2024-01-15T14:27:25;3.93;;;1.70;;
74064;SDS011;62421;51.412;5.432;2024-01-15T14:29:51;7.85;;;1.70;;
74064;SDS011;62421;51.412;5.432;2024-01-15T14:32:16;6.50;;;2.20;;
74064;SDS011;62421;51.412;5.432;2024-01-15T14:34:41;4.83;;;2.00;;
74064;SDS011;62421;51.412;5.432;2024-01-15T14:37:06;6.40;;;2.20;;
74064;SDS011;62421;51.412;5.432;2024-01-15T14:39:31;6.57;;;1.60;;
74064;SDS011;62421;51.412;5.432;2024-01-15T14:41:59;4.65;;;1.70;;
74064;SDS011;62421;51.412;5.432;2024-01-15T14:44:24;8.80;;;2.30;;
74064;SDS011;62421;51.412;5.432;2024-01-15T14:46:49;6.70;;;2.00;;
74064;SDS011;62421;51.412;5.432;2024-01-15T14:49:15;9.00;;;2.37;;